createdAt,value
2018-09-27T00:00:20.167Z,4.33
2018-09-27T00:02:48.509Z,3.70
2018-09-27T00:05:17.092Z,3.77
2018-09-27T00:07:45.522Z,3.85
2018-09-27T00:10:13.848Z,4.25
2018-09-27T00:12:42.177Z,3.52
2018-09-27T00:15:10.576Z,3.47
2018-09-27T00:17:38.940Z,3.80
2018-09-27T00:20:07.429Z,3.95
2018-09-27T00:22:35.869Z,3.75
2018-09-27T00:25:04.361Z,3.72
2018-09-27T00:27:32.650Z,4.00
2018-09-27T00:30:00.989Z,3.85
2018-09-27T00:32:29.337Z,4.15
2018-09-27T00:34:57.721Z,3.72
2018-09-27T00:37:26.109Z,4.28
2018-09-27T00:39:54.565Z,4.08
2018-09-27T00:42:22.908Z,4.05
2018-09-27T00:44:51.268Z,4.22
2018-09-27T00:47:19.621Z,4.70
2018-09-27T00:49:47.995Z,4.22
2018-09-27T00:52:16.606Z,4.60
2018-09-27T00:54:45.060Z,4.45
2018-09-27T00:57:13.592Z,4.70
2018-09-27T00:59:42.208Z,4.22
2018-09-27T01:02:10.653Z,4.17
2018-09-27T01:04:39.093Z,4.85
2018-09-27T01:07:07.508Z,4.35
2018-09-27T01:09:35.888Z,5.20
2018-09-27T01:12:04.305Z,4.75
2018-09-27T01:14:32.732Z,5.10
2018-09-27T01:17:01.166Z,4.60
2018-09-27T01:19:29.553Z,4.87
2018-09-27T01:21:58.045Z,4.15
2018-09-27T01:24:26.399Z,4.67
2018-09-27T01:26:54.811Z,4.72
2018-09-27T01:29:23.191Z,4.78
2018-09-27T01:31:51.618Z,4.53
2018-09-27T01:34:20.073Z,5.15
2018-09-27T01:36:48.622Z,4.78
2018-09-27T01:39:17.145Z,4.85
2018-09-27T01:41:45.691Z,5.15
2018-09-27T01:44:13.974Z,4.87
2018-09-27T01:46:42.290Z,4.05
2018-09-27T01:49:10.628Z,4.40
2018-09-27T01:51:39.011Z,4.53
2018-09-27T01:54:07.397Z,5.03
2018-09-27T01:56:35.774Z,4.75
2018-09-27T01:59:04.188Z,4.97
2018-09-27T02:01:32.544Z,5.25
2018-09-27T02:04:00.908Z,4.50
2018-09-27T02:06:29.266Z,5.37
2018-09-27T02:08:57.716Z,4.70
2018-09-27T02:11:26.123Z,5.00
2018-09-27T02:13:54.661Z,4.72
2018-09-27T02:16:23.157Z,5.55
2018-09-27T02:18:51.535Z,5.03
2018-09-27T02:21:19.845Z,5.40
2018-09-27T02:23:48.102Z,4.87
2018-09-27T02:26:16.394Z,4.97
2018-09-27T02:28:45.706Z,5.22
2018-09-27T02:31:14.198Z,5.37
2018-09-27T02:33:42.560Z,4.05
2018-09-27T02:36:10.861Z,4.72
2018-09-27T02:38:39.237Z,4.97
2018-09-27T02:41:07.633Z,5.00
2018-09-27T02:43:36.014Z,4.78
2018-09-27T02:46:04.420Z,4.62
2018-09-27T02:48:32.848Z,5.03
2018-09-27T02:51:01.230Z,5.25
2018-09-27T02:53:29.695Z,5.50
2018-09-27T02:55:58.284Z,5.03
2018-09-27T02:58:27.008Z,5.50
2018-09-27T03:00:55.450Z,4.78
2018-09-27T03:03:24.407Z,4.65
2018-09-27T03:05:53.829Z,4.83
2018-09-27T03:08:22.185Z,5.20
2018-09-27T03:10:50.619Z,5.08
2018-09-27T03:13:18.991Z,5.28
2018-09-27T03:15:48.145Z,4.60
2018-09-27T03:18:16.536Z,4.70
2018-09-27T03:20:44.950Z,4.97
2018-09-27T03:23:13.315Z,5.62
2018-09-27T03:25:41.739Z,5.15
2018-09-27T03:28:10.474Z,4.90
2018-09-27T03:30:38.851Z,5.05
2018-09-27T03:33:07.371Z,4.70
2018-09-27T03:35:36.615Z,5.30
2018-09-27T03:38:05.033Z,4.62
2018-09-27T03:40:33.507Z,5.15
2018-09-27T03:43:01.856Z,4.85
2018-09-27T03:45:30.305Z,5.20
2018-09-27T03:47:58.744Z,4.72
2018-09-27T03:50:27.123Z,5.20
2018-09-27T03:52:55.518Z,4.80
2018-09-27T03:55:23.817Z,5.12
2018-09-27T03:57:52.181Z,4.87
2018-09-27T04:00:20.636Z,4.45
2018-09-27T04:02:49.055Z,6.42
2018-09-27T04:05:17.423Z,4.58
2018-09-27T04:07:45.835Z,4.45
2018-09-27T04:10:14.270Z,4.55
2018-09-27T04:12:42.979Z,4.65
2018-09-27T04:15:11.736Z,5.33
2018-09-27T04:17:40.180Z,4.97
2018-09-27T04:20:08.654Z,5.97
2018-09-27T04:22:38.010Z,5.12
2018-09-27T04:25:06.417Z,5.62
2018-09-27T04:27:34.766Z,5.47
2018-09-27T04:30:03.085Z,5.28
2018-09-27T04:32:31.359Z,4.95
2018-09-27T04:34:59.674Z,5.12
2018-09-27T04:37:28.094Z,5.00
2018-09-27T04:39:56.485Z,5.53
2018-09-27T04:42:25.085Z,5.25
2018-09-27T04:44:53.620Z,5.37
2018-09-27T04:47:22.292Z,4.90
2018-09-27T04:49:50.823Z,4.90
2018-09-27T04:52:19.352Z,5.30
2018-09-27T04:54:47.914Z,6.35
2018-09-27T04:57:16.645Z,5.10
2018-09-27T04:59:47.074Z,5.03
2018-09-27T05:02:15.449Z,5.15
2018-09-27T05:04:43.778Z,4.12
2018-09-27T05:07:12.110Z,4.47
2018-09-27T05:09:41.328Z,5.92
2018-09-27T05:12:09.641Z,5.60
2018-09-27T05:14:37.941Z,5.60
2018-09-27T05:17:06.341Z,4.97
2018-09-27T05:19:34.710Z,4.60
2018-09-27T05:22:03.096Z,4.65
2018-09-27T05:24:31.456Z,5.12
2018-09-27T05:26:59.886Z,5.50
2018-09-27T05:29:28.507Z,5.05
2018-09-27T05:31:57.083Z,4.92
2018-09-27T05:34:25.590Z,5.35
2018-09-27T05:36:54.199Z,5.22
2018-09-27T05:39:22.860Z,6.17
2018-09-27T05:41:51.232Z,6.45
2018-09-27T05:44:19.595Z,5.60
2018-09-27T05:46:47.919Z,4.83
2018-09-27T05:49:17.247Z,5.33
2018-09-27T05:51:45.625Z,5.15
2018-09-27T05:54:14.013Z,5.75
2018-09-27T05:56:42.348Z,5.37
2018-09-27T05:59:10.712Z,6.00
2018-09-27T06:01:39.049Z,5.47
2018-09-27T06:04:07.400Z,5.25
2018-09-27T06:06:36.111Z,5.90
2018-09-27T06:09:11.168Z,5.37
2018-09-27T06:11:39.601Z,5.58
2018-09-27T06:14:08.140Z,5.12
2018-09-27T06:16:37.641Z,5.72
2018-09-27T06:19:06.255Z,5.95
2018-09-27T06:21:34.721Z,5.55
2018-09-27T06:24:03.092Z,6.75
2018-09-27T06:26:31.440Z,5.15
2018-09-27T06:28:59.725Z,5.65
2018-09-27T06:31:28.061Z,5.58
2018-09-27T06:33:56.343Z,5.30
2018-09-27T06:36:24.739Z,5.95
2018-09-27T06:38:53.208Z,5.50
2018-09-27T06:41:21.780Z,6.37
2018-09-27T06:43:50.232Z,5.72
2018-09-27T06:46:18.582Z,6.03
2018-09-27T06:48:46.958Z,5.33
2018-09-27T06:51:15.396Z,5.83
2018-09-27T06:53:43.764Z,6.22
2018-09-27T06:56:12.281Z,6.85
2018-09-27T06:58:41.278Z,6.30
2018-09-27T07:01:09.944Z,6.28
2018-09-27T07:03:38.438Z,5.87
2018-09-27T07:06:07.058Z,6.45
2018-09-27T07:08:35.468Z,6.78
2018-09-27T07:11:03.790Z,6.58
2018-09-27T07:13:32.177Z,6.83
2018-09-27T07:16:00.549Z,7.33
2018-09-27T07:18:29.564Z,6.62
2018-09-27T07:20:57.879Z,7.17
2018-09-27T07:23:26.460Z,6.30
2018-09-27T07:25:54.795Z,7.58
2018-09-27T07:28:23.185Z,6.72
2018-09-27T07:30:51.532Z,6.78
2018-09-27T07:33:19.979Z,6.53
2018-09-27T07:35:48.372Z,6.62
2018-09-27T07:38:16.870Z,6.72
2018-09-27T07:40:45.273Z,6.97
2018-09-27T07:43:13.632Z,6.12
2018-09-27T07:45:41.985Z,6.80
2018-09-27T07:48:10.344Z,7.20
2018-09-27T07:50:38.756Z,6.75
2018-09-27T07:53:07.282Z,7.05
2018-09-27T07:55:35.615Z,7.28
2018-09-27T07:58:03.986Z,7.40
2018-09-27T08:00:32.352Z,6.70
2018-09-27T08:03:00.678Z,6.87
2018-09-27T08:05:29.078Z,7.00
2018-09-27T08:07:57.435Z,6.80
2018-09-27T08:10:25.751Z,7.03
2018-09-27T08:12:54.339Z,6.75
2018-09-27T08:15:22.806Z,6.78
2018-09-27T08:17:51.237Z,7.55
2018-09-27T08:20:19.754Z,8.43
2018-09-27T08:22:48.040Z,8.48
2018-09-27T08:25:16.444Z,7.20
2018-09-27T08:27:45.821Z,7.30
2018-09-27T08:30:14.190Z,7.60
2018-09-27T08:32:42.545Z,8.23
2018-09-27T08:35:10.852Z,8.30
2018-09-27T08:37:39.160Z,8.33
2018-09-27T08:40:07.711Z,7.25
2018-09-27T08:42:36.109Z,8.53
2018-09-27T08:45:04.531Z,8.23
2018-09-27T08:47:32.901Z,9.38
2018-09-27T08:50:01.237Z,8.63
2018-09-27T08:52:29.537Z,8.50
2018-09-27T08:54:57.909Z,9.33
2018-09-27T08:57:27.631Z,8.93
2018-09-27T08:59:56.821Z,8.75
2018-09-27T09:02:25.249Z,9.73
2018-09-27T09:04:53.634Z,9.68
2018-09-27T09:07:21.970Z,9.18
2018-09-27T09:09:50.300Z,9.28
2018-09-27T09:12:18.628Z,9.65
2018-09-27T09:14:46.991Z,10.05
2018-09-27T09:17:15.315Z,9.93
2018-09-27T09:19:43.737Z,10.80
2018-09-27T09:22:12.035Z,10.63
2018-09-27T09:24:40.579Z,9.48
2018-09-27T09:27:08.866Z,9.48
2018-09-27T09:29:37.303Z,9.78
2018-09-27T09:32:05.652Z,10.23
2018-09-27T09:34:34.093Z,9.80
2018-09-27T09:37:02.413Z,9.85
2018-09-27T09:39:30.748Z,9.80
2018-09-27T09:41:59.116Z,9.98
2018-09-27T09:44:27.451Z,10.25
2018-09-27T09:46:55.867Z,10.25
2018-09-27T09:49:24.314Z,8.53
2018-09-27T09:51:52.736Z,10.08
2018-09-27T09:54:21.843Z,10.58
2018-09-27T09:56:50.294Z,10.98
2018-09-27T09:59:18.704Z,10.00
2018-09-27T10:01:47.061Z,10.72
2018-09-27T10:04:15.820Z,10.35
2018-09-27T10:06:44.224Z,9.90
2018-09-27T10:09:12.808Z,10.38
2018-09-27T10:11:41.256Z,11.75
2018-09-27T10:14:09.837Z,10.80
2018-09-27T10:16:39.238Z,10.70
2018-09-27T10:19:07.640Z,10.98
2018-09-27T10:21:36.127Z,10.50
2018-09-27T10:24:04.518Z,12.45
2018-09-27T10:26:32.873Z,10.60
2018-09-27T10:29:01.240Z,12.55
2018-09-27T10:31:29.626Z,11.22
2018-09-27T10:33:58.074Z,11.15
2018-09-27T10:36:26.446Z,10.75
2018-09-27T10:38:54.884Z,12.20
2018-09-27T10:41:23.364Z,10.88
2018-09-27T10:43:51.694Z,11.45
2018-09-27T10:46:20.171Z,11.57
2018-09-27T10:48:48.653Z,10.68
2018-09-27T10:51:17.217Z,10.08
2018-09-27T10:53:45.733Z,9.68
2018-09-27T10:56:14.147Z,10.03
2018-09-27T10:58:42.629Z,11.53
2018-09-27T11:01:10.991Z,10.03
2018-09-27T11:03:39.359Z,10.72
2018-09-27T11:06:08.042Z,10.82
2018-09-27T11:08:36.455Z,9.48
2018-09-27T11:11:04.937Z,9.40
2018-09-27T11:13:33.382Z,8.55
2018-09-27T11:16:01.802Z,9.65
2018-09-27T11:18:30.208Z,9.25
2018-09-27T11:20:58.860Z,9.45
2018-09-27T11:23:27.478Z,9.65
2018-09-27T11:25:56.017Z,9.78
2018-09-27T11:28:24.571Z,9.68
2018-09-27T11:30:58.307Z,9.75
2018-09-27T11:33:26.759Z,9.70
2018-09-27T11:35:55.172Z,8.55
2018-09-27T11:38:23.559Z,9.05
2018-09-27T11:40:51.900Z,8.38
2018-09-27T11:43:20.425Z,10.38
2018-09-27T11:45:48.792Z,8.65
2018-09-27T11:48:17.170Z,9.78
2018-09-27T11:50:45.571Z,9.33
2018-09-27T11:53:13.971Z,8.95
2018-09-27T11:55:43.192Z,8.45
2018-09-27T11:58:11.552Z,8.43
2018-09-27T12:00:39.996Z,7.58
2018-09-27T12:03:08.333Z,8.75
2018-09-27T12:05:36.726Z,7.35
2018-09-27T12:08:05.169Z,7.17
2018-09-27T12:10:33.630Z,8.10
2018-09-27T12:13:03.272Z,6.08
2018-09-27T12:15:31.679Z,6.47
2018-09-27T12:18:00.062Z,6.15
2018-09-27T12:20:28.527Z,6.05
2018-09-27T12:22:56.973Z,7.03
2018-09-27T12:25:25.361Z,6.62
2018-09-27T12:27:53.757Z,6.22
2018-09-27T12:30:22.100Z,6.55
2018-09-27T12:32:50.567Z,6.40
2018-09-27T12:35:18.919Z,6.00
2018-09-27T12:37:47.278Z,7.12
2018-09-27T12:40:15.687Z,5.62
2018-09-27T12:42:44.280Z,6.03
2018-09-27T12:45:12.620Z,5.08
2018-09-27T12:47:40.905Z,5.30
2018-09-27T12:50:09.286Z,5.45
2018-09-27T12:52:37.778Z,4.25
2018-09-27T12:55:06.222Z,5.17
2018-09-27T12:57:35.229Z,4.95
2018-09-27T13:00:03.823Z,4.10
2018-09-27T13:02:33.461Z,5.22
2018-09-27T13:05:01.806Z,4.45
2018-09-27T13:07:30.132Z,4.92
2018-09-27T13:09:58.644Z,4.72
2018-09-27T13:12:26.867Z,4.37
2018-09-27T13:14:55.191Z,4.30
2018-09-27T13:17:23.546Z,4.90
2018-09-27T13:19:52.131Z,5.58
2018-09-27T13:22:20.466Z,4.83
2018-09-27T13:24:48.787Z,4.83
2018-09-27T13:27:17.765Z,4.60
2018-09-27T13:29:46.697Z,4.95
2018-09-27T13:32:15.099Z,5.47
2018-09-27T13:34:43.598Z,5.20
2018-09-27T13:37:12.031Z,4.80
2018-09-27T13:39:40.437Z,6.00
2018-09-27T13:42:08.760Z,5.30
2018-09-27T13:44:37.072Z,5.53
2018-09-27T13:47:05.489Z,5.35
2018-09-27T13:49:33.804Z,6.25
2018-09-27T13:52:02.145Z,6.00
2018-09-27T13:54:30.462Z,5.70
2018-09-27T13:56:58.896Z,5.92
2018-09-27T13:59:27.244Z,5.28
2018-09-27T14:01:55.562Z,6.60
2018-09-27T14:04:23.903Z,5.15
2018-09-27T14:06:52.284Z,5.10
2018-09-27T14:09:20.688Z,4.58
2018-09-27T14:11:49.116Z,4.45
2018-09-27T14:14:20.119Z,4.78
2018-09-27T14:16:51.814Z,4.33
2018-09-27T14:19:22.353Z,4.47
2018-09-27T14:21:50.717Z,5.03
2018-09-27T14:24:19.253Z,4.42
2018-09-27T14:26:47.644Z,4.80
2018-09-27T14:29:15.992Z,3.85
2018-09-27T14:31:44.501Z,4.78
2018-09-27T14:34:12.873Z,4.78
2018-09-27T14:36:41.244Z,4.33
2018-09-27T14:39:10.355Z,5.25
2018-09-27T14:41:38.950Z,4.05
2018-09-27T14:44:07.523Z,4.62
2018-09-27T14:46:35.990Z,4.20
2018-09-27T14:49:04.624Z,3.87
2018-09-27T14:51:33.026Z,4.17
2018-09-27T14:54:01.360Z,4.25
2018-09-27T14:56:29.714Z,3.72
2018-09-27T14:58:58.195Z,4.47
2018-09-27T15:01:26.695Z,3.40
2018-09-27T15:03:55.075Z,3.35
2018-09-27T15:06:23.419Z,3.25
2018-09-27T15:08:51.754Z,4.00
2018-09-27T15:11:20.207Z,2.75
2018-09-27T15:13:48.636Z,3.30
2018-09-27T15:16:16.954Z,3.47
2018-09-27T15:18:45.277Z,3.30
2018-09-27T15:21:13.555Z,3.47
2018-09-27T15:23:41.994Z,4.30
2018-09-27T15:26:10.426Z,3.30
2018-09-27T15:28:38.800Z,2.92
2018-09-27T15:31:07.322Z,3.10
2018-09-27T15:33:35.749Z,3.25
2018-09-27T15:36:04.528Z,3.40
2018-09-27T15:38:33.572Z,3.20
2018-09-27T15:41:02.194Z,3.10
2018-09-27T15:43:30.764Z,3.00
2018-09-27T15:45:59.119Z,3.50
2018-09-27T15:48:27.398Z,3.08
2018-09-27T15:50:56.086Z,3.47
2018-09-27T15:53:24.476Z,2.83
2018-09-27T15:55:53.043Z,3.00
2018-09-27T15:58:21.499Z,3.42
2018-09-27T16:00:49.899Z,2.92
2018-09-27T16:03:18.259Z,2.80
2018-09-27T16:05:46.546Z,2.40
2018-09-27T16:08:14.872Z,2.77
2018-09-27T16:10:43.364Z,3.12
2018-09-27T16:13:11.723Z,3.35
2018-09-27T16:15:40.170Z,3.35
2018-09-27T16:18:08.700Z,3.37
2018-09-27T16:20:37.729Z,2.77
2018-09-27T16:23:06.201Z,3.52
2018-09-27T16:25:34.542Z,3.40
2018-09-27T16:28:03.035Z,2.72
2018-09-27T16:30:31.947Z,3.67
2018-09-27T16:33:00.259Z,3.40
2018-09-27T16:35:28.645Z,3.60
2018-09-27T16:37:57.314Z,3.20
2018-09-27T16:40:25.741Z,4.05
2018-09-27T16:42:54.109Z,3.65
2018-09-27T16:45:22.523Z,4.62
2018-09-27T16:47:50.996Z,4.22
2018-09-27T16:50:19.433Z,4.75
2018-09-27T16:52:47.963Z,4.80
2018-09-27T16:55:16.347Z,5.33
2018-09-27T16:57:45.697Z,5.90
2018-09-27T17:00:14.123Z,5.55
2018-09-27T17:02:42.637Z,4.80
2018-09-27T17:05:11.017Z,5.55
2018-09-27T17:07:39.412Z,5.60
2018-09-27T17:10:07.842Z,6.25
2018-09-27T17:12:36.258Z,6.65
2018-09-27T17:15:04.756Z,5.87
2018-09-27T17:17:33.121Z,6.65
2018-09-27T17:20:01.555Z,7.15
2018-09-27T17:22:30.031Z,7.00
2018-09-27T17:24:58.519Z,6.60
2018-09-27T17:27:26.846Z,6.97
2018-09-27T17:29:55.203Z,7.03
2018-09-27T17:32:23.598Z,6.90
2018-09-27T17:34:52.093Z,6.70
2018-09-27T17:37:20.525Z,8.20
2018-09-27T17:39:48.920Z,8.10
2018-09-27T17:42:17.369Z,8.98
2018-09-27T17:44:45.734Z,7.25
2018-09-27T17:47:14.260Z,8.00
2018-09-27T17:49:42.680Z,7.92
2018-09-27T17:52:11.024Z,8.28
2018-09-27T17:54:39.547Z,6.95
2018-09-27T17:57:08.160Z,8.33
2018-09-27T17:59:36.605Z,8.53
2018-09-27T18:02:04.972Z,8.63
2018-09-27T18:04:33.737Z,9.00
2018-09-27T18:07:02.105Z,8.20
2018-09-27T18:09:30.431Z,9.03
2018-09-27T18:11:58.945Z,10.25
2018-09-27T18:14:27.389Z,8.90
2018-09-27T18:16:55.740Z,9.65
2018-09-27T18:19:25.313Z,10.40
2018-09-27T18:21:54.872Z,14.25
2018-09-27T18:24:23.300Z,9.18
2018-09-27T18:26:51.643Z,8.88
2018-09-27T18:29:19.998Z,9.95
2018-09-27T18:31:48.331Z,8.90
2018-09-27T18:34:16.756Z,9.80
2018-09-27T18:36:45.108Z,9.15
2018-09-27T18:39:13.748Z,8.45
2018-09-27T18:41:42.633Z,9.75
2018-09-27T18:44:11.137Z,9.68
2018-09-27T18:46:39.529Z,8.25
2018-09-27T18:49:08.823Z,9.38
2018-09-27T18:51:37.435Z,10.23
2018-09-27T18:54:06.077Z,12.07
2018-09-27T18:56:34.566Z,10.28
2018-09-27T18:59:03.918Z,9.48
2018-09-27T19:01:32.455Z,9.28
2018-09-27T19:04:00.811Z,8.25
2018-09-27T19:06:29.169Z,9.08
2018-09-27T19:08:57.471Z,8.45
2018-09-27T19:11:25.845Z,8.95
2018-09-27T19:13:54.574Z,8.83
2018-09-27T19:16:22.925Z,7.58
2018-09-27T19:18:51.278Z,7.80
2018-09-27T19:21:19.657Z,7.60
2018-09-27T19:23:48.111Z,7.58
2018-09-27T19:26:16.592Z,8.23
2018-09-27T19:28:44.963Z,8.03
2018-09-27T19:31:13.454Z,9.15
2018-09-27T19:33:41.958Z,9.08
2018-09-27T19:36:10.467Z,9.00
2018-09-27T19:38:38.898Z,9.43
2018-09-27T19:41:07.288Z,8.70
2018-09-27T19:43:35.661Z,8.90
2018-09-27T19:46:04.008Z,9.63
2018-09-27T19:48:32.453Z,9.23
2018-09-27T19:51:00.797Z,9.08
2018-09-27T19:53:29.159Z,9.30
2018-09-27T19:55:57.650Z,8.98
2018-09-27T19:58:26.119Z,9.33
2018-09-27T20:01:02.690Z,8.30
2018-09-27T20:03:31.101Z,9.88
2018-09-27T20:05:59.451Z,10.23
2018-09-27T20:08:27.860Z,11.53
2018-09-27T20:10:56.200Z,11.10
2018-09-27T20:13:24.578Z,9.85
2018-09-27T20:15:52.906Z,10.82
2018-09-27T20:18:21.335Z,9.98
2018-09-27T20:20:49.779Z,10.13
2018-09-27T20:23:18.158Z,9.70
2018-09-27T20:25:46.580Z,9.78
2018-09-27T20:28:15.701Z,9.25
2018-09-27T20:30:43.989Z,9.75
2018-09-27T20:33:12.372Z,9.18
2018-09-27T20:35:40.736Z,9.88
2018-09-27T20:38:10.238Z,9.90
2018-09-27T20:40:38.668Z,10.25
2018-09-27T20:43:07.008Z,10.15
2018-09-27T20:45:35.420Z,10.35
2018-09-27T20:48:03.764Z,9.00
2018-09-27T20:50:32.095Z,9.95
2018-09-27T20:53:00.473Z,10.53
2018-09-27T20:55:28.871Z,9.68
2018-09-27T20:57:57.411Z,10.75
2018-09-27T21:00:25.794Z,9.88
2018-09-27T21:02:54.180Z,10.53
2018-09-27T21:05:22.792Z,9.20
2018-09-27T21:07:52.475Z,9.73
2018-09-27T21:10:20.846Z,9.18
2018-09-27T21:12:49.399Z,9.20
2018-09-27T21:15:18.146Z,9.13
2018-09-27T21:17:46.468Z,8.08
2018-09-27T21:20:14.774Z,9.23
2018-09-27T21:22:43.140Z,9.20
2018-09-27T21:25:11.498Z,9.60
2018-09-27T21:27:39.936Z,8.75
2018-09-27T21:30:08.428Z,9.78
2018-09-27T21:32:37.051Z,9.98
2018-09-27T21:35:05.746Z,9.15
2018-09-27T21:37:34.688Z,9.63
2018-09-27T21:40:03.272Z,9.98
2018-09-27T21:42:32.001Z,10.68
2018-09-27T21:45:00.356Z,10.78
2018-09-27T21:47:28.716Z,12.15
2018-09-27T21:49:57.233Z,11.48
2018-09-27T21:52:25.645Z,12.58
2018-09-27T21:54:53.978Z,12.85
2018-09-27T21:57:22.340Z,12.73
2018-09-27T21:59:50.736Z,11.18
2018-09-27T22:02:19.117Z,13.38
2018-09-27T22:04:47.474Z,13.03
2018-09-27T22:07:15.817Z,12.07
2018-09-27T22:09:44.131Z,11.95
2018-09-27T22:12:12.537Z,12.65
2018-09-27T22:14:41.359Z,12.70
2018-09-27T22:17:09.781Z,13.38
2018-09-27T22:19:38.506Z,14.55
2018-09-27T22:22:06.968Z,13.18
2018-09-27T22:24:35.425Z,11.95
2018-09-27T22:27:03.900Z,10.85
2018-09-27T22:29:32.278Z,12.65
2018-09-27T22:32:00.630Z,13.32
2018-09-27T22:34:29.072Z,12.85
2018-09-27T22:36:58.430Z,12.93
2018-09-27T22:39:26.918Z,11.22
2018-09-27T22:41:55.259Z,12.37
2018-09-27T22:44:23.664Z,12.33
2018-09-27T22:46:52.065Z,13.10
2018-09-27T22:49:21.193Z,13.32
2018-09-27T22:51:49.862Z,13.95
2018-09-27T22:54:18.472Z,13.20
2018-09-27T22:56:47.059Z,13.70
2018-09-27T22:59:15.497Z,13.95
2018-09-27T23:01:43.984Z,13.78
2018-09-27T23:04:12.293Z,11.68
2018-09-27T23:06:40.670Z,12.58
2018-09-27T23:09:09.054Z,12.80
2018-09-27T23:11:37.405Z,14.25
2018-09-27T23:14:05.731Z,12.80
2018-09-27T23:16:34.080Z,13.08
2018-09-27T23:19:02.764Z,13.18
2018-09-27T23:21:31.067Z,12.37
2018-09-27T23:23:59.592Z,13.80
2018-09-27T23:26:28.285Z,12.58
2018-09-27T23:28:56.717Z,14.15
2018-09-27T23:31:25.142Z,13.62
2018-09-27T23:34:00.232Z,12.85
2018-09-27T23:36:29.174Z,13.10
2018-09-27T23:38:57.592Z,12.68
2018-09-27T23:41:26.117Z,12.85
2018-09-27T23:43:54.536Z,13.72
2018-09-27T23:46:22.884Z,13.40
2018-09-27T23:48:51.394Z,13.65
2018-09-27T23:51:21.551Z,12.90
2018-09-27T23:53:49.886Z,13.93
2018-09-27T23:56:18.310Z,12.78
2018-09-27T23:58:47.175Z,13.55
